sensor_id;sensor_type;location;lat;lon;timestamp;pressure;altitude;pressure_sealevel;temperature;humidity
30598;BME280;17365;48.878;8.334;2023-02-28T00:01:18;100912.19;;;-0.51;63.64
30598;BME280;17365;48.878;8.334;2023-02-28T00:03:44;100915.03;;;-0.32;62.27
30598;BME280;17365;48.878;8.334;2023-02-28T00:06:09;100916.41;;;-0.66;65.12
30598;BME280;17365;48.878;8.334;2023-02-28T00:08:34;100917.13;;;-0.39;63.64
30598;BME280;17365;48.878;8.334;2023-02-28T00:11:00;100913.97;;;-0.35;62.62
30598;BME280;17365;48.878;8.334;2023-02-28T00:13:26;100917.50;;;-0.33;63.15
30598;BME280;17365;48.878;8.334;2023-02-28T00:16:01;100911.94;;;-0.26;62.75
30598;BME280;17365;48.878;8.334;2023-02-28T00:18:27;100915.03;;;-0.32;62.81
30598;BME280;17365;48.878;8.334;2023-02-28T00:20:52;100911.94;;;-0.55;65.18
30598;BME280;17365;48.878;8.334;2023-02-28T00:23:17;100915.22;;;-0.43;64.31
30598;BME280;17365;48.878;8.334;2023-02-28T00:25:43;100906.75;;;-0.42;64.22
30598;BME280;17365;48.878;8.334;2023-02-28T00:28:08;100912.53;;;-0.60;65.53
30598;BME280;17365;48.878;8.334;2023-02-28T00:30:33;100911.22;;;-0.68;65.82
30598;BME280;17365;48.878;8.334;2023-02-28T00:32:58;100909.88;;;-0.76;65.95
30598;BME280;17365;48.878;8.334;2023-02-28T00:35:24;100915.06;;;-0.74;66.45
30598;BME280;17365;48.878;8.334;2023-02-28T00:37:49;100913.84;;;-0.66;65.64
30598;BME280;17365;48.878;8.334;2023-02-28T00:40:14;100913.22;;;-0.77;66.62
30598;BME280;17365;48.878;8.334;2023-02-28T00:42:40;100916.91;;;-0.57;64.88
30598;BME280;17365;48.878;8.334;2023-02-28T00:45:05;100915.84;;;-0.75;66.49
30598;BME280;17365;48.878;8.334;2023-02-28T00:47:30;100915.78;;;-0.62;65.47
30598;BME280;17365;48.878;8.334;2023-02-28T00:49:56;100912.91;;;-0.53;64.86
30598;BME280;17365;48.878;8.334;2023-02-28T00:52:21;100920.00;;;-0.63;65.95
30598;BME280;17365;48.878;8.334;2023-02-28T00:54:46;100913.41;;;-0.59;65.60
30598;BME280;17365;48.878;8.334;2023-02-28T00:57:11;100912.34;;;-0.63;66.05
30598;BME280;17365;48.878;8.334;2023-02-28T00:59:37;100912.50;;;-0.74;66.23
30598;BME280;17365;48.878;8.334;2023-02-28T01:02:02;100915.16;;;-0.73;66.09
30598;BME280;17365;48.878;8.334;2023-02-28T01:04:27;100912.34;;;-0.63;65.16
30598;BME280;17365;48.878;8.334;2023-02-28T01:06:52;100909.00;;;-1.04;68.65
30598;BME280;17365;48.878;8.334;2023-02-28T01:09:17;100913.31;;;-0.75;66.71
30598;BME280;17365;48.878;8.334;2023-02-28T01:11:43;100912.25;;;-0.79;66.49
30598;BME280;17365;48.878;8.334;2023-02-28T01:14:10;100911.25;;;-0.81;66.78
30598;BME280;17365;48.878;8.334;2023-02-28T01:16:36;100910.75;;;-0.75;67.06
30598;BME280;17365;48.878;8.334;2023-02-28T01:19:01;100915.53;;;-0.67;65.53
30598;BME280;17365;48.878;8.334;2023-02-28T01:21:27;100911.59;;;-0.90;67.20
30598;BME280;17365;48.878;8.334;2023-02-28T01:23:52;100918.09;;;-0.80;66.47
30598;BME280;17365;48.878;8.334;2023-02-28T01:26:18;100910.19;;;-0.84;66.63
30598;BME280;17365;48.878;8.334;2023-02-28T01:28:44;100908.56;;;-1.25;69.83
30598;BME280;17365;48.878;8.334;2023-02-28T01:31:09;100914.41;;;-0.85;67.04
30598;BME280;17365;48.878;8.334;2023-02-28T01:33:35;100912.25;;;-0.79;65.91
30598;BME280;17365;48.878;8.334;2023-02-28T01:38:26;100916.34;;;-0.81;66.19
30598;BME280;17365;48.878;8.334;2023-02-28T01:40:51;100917.00;;;-0.98;67.86
30598;BME280;17365;48.878;8.334;2023-02-28T01:46:02;100906.34;;;-1.06;68.34
30598;BME280;17365;48.878;8.334;2023-02-28T01:48:29;100912.28;;;-0.92;67.40
30598;BME280;17365;48.878;8.334;2023-02-28T01:50:56;100909.06;;;-0.90;67.42
30598;BME280;17365;48.878;8.334;2023-02-28T01:53:26;100911.97;;;-1.25;69.36
30598;BME280;17365;48.878;8.334;2023-02-28T01:55:55;100907.84;;;-1.09;68.63
30598;BME280;17365;48.878;8.334;2023-02-28T01:58:21;100906.56;;;-1.16;69.25
30598;BME280;17365;48.878;8.334;2023-02-28T02:00:46;100914.28;;;-1.01;67.76
30598;BME280;17365;48.878;8.334;2023-02-28T02:03:13;100903.63;;;-1.09;68.21
30598;BME280;17365;48.878;8.334;2023-02-28T02:05:40;100905.66;;;-1.03;68.26
30598;BME280;17365;48.878;8.334;2023-02-28T02:08:06;100899.38;;;-0.95;67.74
30598;BME280;17365;48.878;8.334;2023-02-28T02:10:34;100900.16;;;-0.96;67.03
30598;BME280;17365;48.878;8.334;2023-02-28T02:15:38;100902.22;;;-1.04;67.63
30598;BME280;17365;48.878;8.334;2023-02-28T02:18:09;100898.00;;;-0.90;66.94
30598;BME280;17365;48.878;8.334;2023-02-28T02:23:27;100897.03;;;-1.05;69.05
30598;BME280;17365;48.878;8.334;2023-02-28T02:31:39;100898.00;;;-1.03;68.16
30598;BME280;17365;48.878;8.334;2023-02-28T02:36:42;100894.31;;;-1.08;68.02
30598;BME280;17365;48.878;8.334;2023-02-28T02:39:16;100908.50;;;-1.40;69.72
30598;BME280;17365;48.878;8.334;2023-02-28T02:46:43;100892.88;;;-1.18;69.55
30598;BME280;17365;48.878;8.334;2023-02-28T02:49:09;100902.00;;;-1.22;69.35
30598;BME280;17365;48.878;8.334;2023-02-28T02:51:36;100908.31;;;-1.43;70.83
30598;BME280;17365;48.878;8.334;2023-02-28T02:54:11;100904.50;;;-1.63;72.26
30598;BME280;17365;48.878;8.334;2023-02-28T02:56:40;100891.91;;;-1.74;72.90
30598;BME280;17365;48.878;8.334;2023-02-28T02:59:08;100898.81;;;-1.59;72.13
30598;BME280;17365;48.878;8.334;2023-02-28T03:01:34;100899.28;;;-1.38;70.83
30598;BME280;17365;48.878;8.334;2023-02-28T03:04:07;100898.88;;;-1.31;70.83
30598;BME280;17365;48.878;8.334;2023-02-28T03:06:33;100910.09;;;-1.55;72.11
30598;BME280;17365;48.878;8.334;2023-02-28T03:09:00;100906.56;;;-1.57;72.95
30598;BME280;17365;48.878;8.334;2023-02-28T03:11:25;100907.53;;;-1.42;71.83
30598;BME280;17365;48.878;8.334;2023-02-28T03:21:35;100904.31;;;-1.11;69.13
30598;BME280;17365;48.878;8.334;2023-02-28T03:24:16;100899.25;;;-1.11;70.20
30598;BME280;17365;48.878;8.334;2023-02-28T03:26:43;100897.94;;;-1.05;69.84
30598;BME280;17365;48.878;8.334;2023-02-28T03:31:50;100896.56;;;-1.00;69.45
30598;BME280;17365;48.878;8.334;2023-02-28T03:34:32;100893.16;;;-0.85;69.61
30598;BME280;17365;48.878;8.334;2023-02-28T03:37:00;100896.50;;;-0.86;69.43
30598;BME280;17365;48.878;8.334;2023-02-28T03:39:28;100888.84;;;-0.86;69.92
30598;BME280;17365;48.878;8.334;2023-02-28T03:44:29;100891.75;;;-0.80;69.96
30598;BME280;17365;48.878;8.334;2023-02-28T03:46:59;100888.63;;;-0.62;69.23
30598;BME280;17365;48.878;8.334;2023-02-28T03:49:33;100884.91;;;-0.81;70.05
30598;BME280;17365;48.878;8.334;2023-02-28T03:52:02;100891.25;;;-0.75;69.84
30598;BME280;17365;48.878;8.334;2023-02-28T03:54:29;100891.59;;;-0.69;69.74
30598;BME280;17365;48.878;8.334;2023-02-28T03:56:58;100888.53;;;-0.78;69.86
30598;BME280;17365;48.878;8.334;2023-02-28T03:59:28;100885.13;;;-0.92;70.64
30598;BME280;17365;48.878;8.334;2023-02-28T04:01:55;100882.56;;;-0.78;71.20
30598;BME280;17365;48.878;8.334;2023-02-28T04:04:23;100882.94;;;-1.00;73.01
30598;BME280;17365;48.878;8.334;2023-02-28T04:06:49;100886.00;;;-0.91;72.41
30598;BME280;17365;48.878;8.334;2023-02-28T04:09:14;100889.47;;;-0.91;72.54
30598;BME280;17365;48.878;8.334;2023-02-28T04:11:40;100880.69;;;-0.81;72.61
30598;BME280;17365;48.878;8.334;2023-02-28T04:14:07;100873.75;;;-0.69;71.96
30598;BME280;17365;48.878;8.334;2023-02-28T04:16:33;100875.09;;;-0.61;71.26
30598;BME280;17365;48.878;8.334;2023-02-28T04:18:59;100886.47;;;-0.55;71.15
30598;BME280;17365;48.878;8.334;2023-02-28T04:21:32;100888.56;;;-0.48;70.59
30598;BME280;17365;48.878;8.334;2023-02-28T04:23:59;100879.84;;;-0.37;70.63
30598;BME280;17365;48.878;8.334;2023-02-28T04:26:29;100889.97;;;-0.53;71.08
30598;BME280;17365;48.878;8.334;2023-02-28T04:28:55;100883.03;;;-0.41;70.42
30598;BME280;17365;48.878;8.334;2023-02-28T04:31:20;100883.75;;;-0.44;70.42
30598;BME280;17365;48.878;8.334;2023-02-28T04:33:45;100887.84;;;-0.46;70.75
30598;BME280;17365;48.878;8.334;2023-02-28T04:36:10;100889.00;;;-0.55;71.50
30598;BME280;17365;48.878;8.334;2023-02-28T04:38:36;100884.34;;;-0.48;70.79
30598;BME280;17365;48.878;8.334;2023-02-28T04:41:02;100887.75;;;-0.47;70.68
30598;BME280;17365;48.878;8.334;2023-02-28T04:43:28;100882.25;;;-0.55;70.71
30598;BME280;17365;48.878;8.334;2023-02-28T04:45:54;100889.34;;;-0.49;70.54
30598;BME280;17365;48.878;8.334;2023-02-28T04:48:22;100880.09;;;-0.77;71.16
30598;BME280;17365;48.878;8.334;2023-02-28T04:50:47;100880.66;;;-0.68;71.33
30598;BME280;17365;48.878;8.334;2023-02-28T04:53:12;100887.66;;;-0.64;71.50
30598;BME280;17365;48.878;8.334;2023-02-28T04:55:37;100882.66;;;-0.62;71.07
30598;BME280;17365;48.878;8.334;2023-02-28T04:58:05;100885.53;;;-0.71;71.79
30598;BME280;17365;48.878;8.334;2023-02-28T05:00:30;100889.50;;;-0.76;71.90
30598;BME280;17365;48.878;8.334;2023-02-28T05:02:55;100891.41;;;-0.86;72.33
30598;BME280;17365;48.878;8.334;2023-02-28T05:05:20;100895.13;;;-0.67;71.34
30598;BME280;17365;48.878;8.334;2023-02-28T05:07:45;100887.66;;;-0.78;72.23
30598;BME280;17365;48.878;8.334;2023-02-28T05:10:11;100900.88;;;-0.56;71.08
30598;BME280;17365;48.878;8.334;2023-02-28T05:12:36;100899.88;;;-0.58;71.26
30598;BME280;17365;48.878;8.334;2023-02-28T05:15:02;100898.75;;;-0.63;71.04
30598;BME280;17365;48.878;8.334;2023-02-28T05:17:28;100900.25;;;-0.52;70.64
30598;BME280;17365;48.878;8.334;2023-02-28T05:19:53;100906.06;;;-0.54;71.04
30598;BME280;17365;48.878;8.334;2023-02-28T05:22:18;100903.84;;;-0.48;70.13
30598;BME280;17365;48.878;8.334;2023-02-28T05:24:43;100902.78;;;-0.67;71.24
30598;BME280;17365;48.878;8.334;2023-02-28T05:27:09;100906.56;;;-0.60;71.33
30598;BME280;17365;48.878;8.334;2023-02-28T05:29:34;100910.28;;;-0.55;71.05
30598;BME280;17365;48.878;8.334;2023-02-28T05:32:06;100902.16;;;-0.63;71.26
30598;BME280;17365;48.878;8.334;2023-02-28T05:34:31;100901.47;;;-0.60;70.57
30598;BME280;17365;48.878;8.334;2023-02-28T05:36:56;100898.25;;;-0.85;71.35
30598;BME280;17365;48.878;8.334;2023-02-28T05:39:21;100896.19;;;-0.78;71.82
30598;BME280;17365;48.878;8.334;2023-02-28T05:41:47;100894.28;;;-0.95;73.17
30598;BME280;17365;48.878;8.334;2023-02-28T05:44:12;100898.88;;;-0.90;72.69
30598;BME280;17365;48.878;8.334;2023-02-28T05:46:37;100895.78;;;-0.84;73.17
30598;BME280;17365;48.878;8.334;2023-02-28T05:49:03;100896.66;;;-0.83;73.09
30598;BME280;17365;48.878;8.334;2023-02-28T05:51:28;100897.56;;;-0.83;73.42
30598;BME280;17365;48.878;8.334;2023-02-28T05:53:54;100898.91;;;-0.75;73.61
30598;BME280;17365;48.878;8.334;2023-02-28T05:56:19;100901.59;;;-0.86;73.93
30598;BME280;17365;48.878;8.334;2023-02-28T05:58:44;100901.56;;;-1.01;74.98
30598;BME280;17365;48.878;8.334;2023-02-28T06:04:10;100897.03;;;-1.05;75.87
30598;BME280;17365;48.878;8.334;2023-02-28T06:06:35;100902.09;;;-0.92;75.54
30598;BME280;17365;48.878;8.334;2023-02-28T06:09:02;100905.16;;;-0.98;75.61
30598;BME280;17365;48.878;8.334;2023-02-28T06:11:27;100907.38;;;-0.89;76.06
30598;BME280;17365;48.878;8.334;2023-02-28T06:13:56;100908.44;;;-0.85;75.10
30598;BME280;17365;48.878;8.334;2023-02-28T06:16:22;100906.88;;;-0.69;74.93
30598;BME280;17365;48.878;8.334;2023-02-28T06:18:48;100911.63;;;-0.75;75.36
30598;BME280;17365;48.878;8.334;2023-02-28T06:21:13;100916.56;;;-0.91;76.20
30598;BME280;17365;48.878;8.334;2023-02-28T06:23:38;100912.47;;;-0.89;76.52
30598;BME280;17365;48.878;8.334;2023-02-28T06:26:04;100909.81;;;-0.63;74.92
30598;BME280;17365;48.878;8.334;2023-02-28T06:28:29;100917.03;;;-0.55;74.69
30598;BME280;17365;48.878;8.334;2023-02-28T06:30:54;100916.19;;;-0.69;74.39
30598;BME280;17365;48.878;8.334;2023-02-28T06:33:19;100920.25;;;-0.73;74.48
30598;BME280;17365;48.878;8.334;2023-02-28T06:35:46;100923.25;;;-0.65;75.14
30598;BME280;17365;48.878;8.334;2023-02-28T06:38:11;100921.94;;;-0.59;74.55
30598;BME280;17365;48.878;8.334;2023-02-28T06:40:37;100920.38;;;-0.42;73.79
30598;BME280;17365;48.878;8.334;2023-02-28T06:43:02;100923.47;;;-0.33;73.57
30598;BME280;17365;48.878;8.334;2023-02-28T06:45:28;100924.69;;;-0.26;72.88
30598;BME280;17365;48.878;8.334;2023-02-28T06:47:53;100927.50;;;-0.36;72.69
30598;BME280;17365;48.878;8.334;2023-02-28T06:50:18;100930.66;;;-0.25;72.72
30598;BME280;17365;48.878;8.334;2023-02-28T06:52:46;100938.94;;;-0.30;73.22
30598;BME280;17365;48.878;8.334;2023-02-28T06:55:11;100935.22;;;-0.35;73.64
30598;BME280;17365;48.878;8.334;2023-02-28T06:57:37;100941.16;;;-0.21;72.80
30598;BME280;17365;48.878;8.334;2023-02-28T07:00:06;100945.25;;;-0.38;74.03
30598;BME280;17365;48.878;8.334;2023-02-28T07:02:32;100955.56;;;-0.07;72.91
30598;BME280;17365;48.878;8.334;2023-02-28T07:04:57;100936.31;;;-0.16;72.58
30598;BME280;17365;48.878;8.334;2023-02-28T07:07:23;100937.56;;;-0.10;72.50
30598;BME280;17365;48.878;8.334;2023-02-28T07:09:48;100943.31;;;-0.56;73.97
30598;BME280;17365;48.878;8.334;2023-02-28T07:12:13;100940.94;;;-0.24;72.92
30598;BME280;17365;48.878;8.334;2023-02-28T07:14:38;100939.97;;;-0.55;74.48
30598;BME280;17365;48.878;8.334;2023-02-28T07:17:03;100944.22;;;-0.12;72.70
30598;BME280;17365;48.878;8.334;2023-02-28T07:19:29;100939.28;;;0.06;72.27
30598;BME280;17365;48.878;8.334;2023-02-28T07:21:54;100942.81;;;-0.07;71.34
30598;BME280;17365;48.878;8.334;2023-02-28T07:24:19;100951.97;;;-0.10;72.52
30598;BME280;17365;48.878;8.334;2023-02-28T07:26:44;100949.41;;;-0.25;71.87
30598;BME280;17365;48.878;8.334;2023-02-28T07:29:09;100951.94;;;-0.40;73.01
30598;BME280;17365;48.878;8.334;2023-02-28T07:31:35;100951.34;;;-0.21;72.04
30598;BME280;17365;48.878;8.334;2023-02-28T07:34:00;100936.03;;;0.09;71.13
30598;BME280;17365;48.878;8.334;2023-02-28T07:36:25;100946.00;;;0.04;70.87
30598;BME280;17365;48.878;8.334;2023-02-28T07:38:50;100940.09;;;0.05;70.98
30598;BME280;17365;48.878;8.334;2023-02-28T07:41:16;100939.16;;;0.49;69.97
30598;BME280;17365;48.878;8.334;2023-02-28T07:43:42;100948.72;;;0.53;69.17
30598;BME280;17365;48.878;8.334;2023-02-28T07:46:11;100949.00;;;0.43;68.86
30598;BME280;17365;48.878;8.334;2023-02-28T07:48:37;100955.50;;;0.52;68.74
30598;BME280;17365;48.878;8.334;2023-02-28T07:51:02;100953.03;;;0.23;69.12
30598;BME280;17365;48.878;8.334;2023-02-28T07:53:28;100949.03;;;0.28;69.35
30598;BME280;17365;48.878;8.334;2023-02-28T07:55:57;100952.84;;;0.35;69.00
30598;BME280;17365;48.878;8.334;2023-02-28T07:58:22;100954.50;;;0.19;69.32
30598;BME280;17365;48.878;8.334;2023-02-28T08:00:47;100948.88;;;0.25;69.06
30598;BME280;17365;48.878;8.334;2023-02-28T08:03:13;100949.69;;;0.24;69.24
30598;BME280;17365;48.878;8.334;2023-02-28T08:05:39;100947.72;;;0.35;68.78
30598;BME280;17365;48.878;8.334;2023-02-28T08:08:05;100953.22;;;0.57;67.29
30598;BME280;17365;48.878;8.334;2023-02-28T08:10:30;100945.16;;;0.66;67.70
30598;BME280;17365;48.878;8.334;2023-02-28T08:12:55;100956.53;;;0.56;67.27
30598;BME280;17365;48.878;8.334;2023-02-28T08:15:20;100952.00;;;0.50;67.51
30598;BME280;17365;48.878;8.334;2023-02-28T08:17:45;100963.41;;;0.72;67.20
30598;BME280;17365;48.878;8.334;2023-02-28T08:20:11;100960.16;;;0.60;67.39
30598;BME280;17365;48.878;8.334;2023-02-28T08:22:36;100958.06;;;0.52;67.15
30598;BME280;17365;48.878;8.334;2023-02-28T08:25:01;100965.69;;;0.67;66.82
30598;BME280;17365;48.878;8.334;2023-02-28T08:27:26;100967.31;;;0.50;67.75
30598;BME280;17365;48.878;8.334;2023-02-28T08:29:52;100964.03;;;0.53;67.38
30598;BME280;17365;48.878;8.334;2023-02-28T08:32:17;100965.94;;;0.72;66.74
30598;BME280;17365;48.878;8.334;2023-02-28T08:34:42;100972.09;;;0.75;66.61
30598;BME280;17365;48.878;8.334;2023-02-28T08:37:07;100973.19;;;0.64;66.34
30598;BME280;17365;48.878;8.334;2023-02-28T08:39:36;100971.34;;;0.62;66.75
30598;BME280;17365;48.878;8.334;2023-02-28T08:42:02;100975.88;;;0.82;65.83
30598;BME280;17365;48.878;8.334;2023-02-28T08:44:28;100973.56;;;0.41;66.88
30598;BME280;17365;48.878;8.334;2023-02-28T08:46:53;100976.31;;;0.75;66.43
30598;BME280;17365;48.878;8.334;2023-02-28T08:49:18;100980.72;;;0.77;66.20
30598;BME280;17365;48.878;8.334;2023-02-28T08:51:43;100978.75;;;0.57;66.26
30598;BME280;17365;48.878;8.334;2023-02-28T08:54:09;100978.84;;;0.58;66.61
30598;BME280;17365;48.878;8.334;2023-02-28T08:56:35;100975.00;;;0.98;65.28
30598;BME280;17365;48.878;8.334;2023-02-28T08:59:01;100973.72;;;0.90;65.28
30598;BME280;17365;48.878;8.334;2023-02-28T09:01:27;100968.31;;;1.00;65.04
30598;BME280;17365;48.878;8.334;2023-02-28T09:03:52;100967.34;;;0.98;64.33
30598;BME280;17365;48.878;8.334;2023-02-28T09:06:18;100973.44;;;1.16;64.20
30598;BME280;17365;48.878;8.334;2023-02-28T09:08:44;100976.28;;;1.37;63.86
30598;BME280;17365;48.878;8.334;2023-02-28T09:11:09;100976.63;;;0.96;64.74
30598;BME280;17365;48.878;8.334;2023-02-28T09:13:35;100968.41;;;1.17;64.65
30598;BME280;17365;48.878;8.334;2023-02-28T09:16:01;100978.56;;;1.32;63.23
30598;BME280;17365;48.878;8.334;2023-02-28T09:18:27;100970.31;;;1.05;64.12
30598;BME280;17365;48.878;8.334;2023-02-28T09:20:53;100978.38;;;1.13;64.45
30598;BME280;17365;48.878;8.334;2023-02-28T09:23:18;100973.44;;;1.32;63.59
30598;BME280;17365;48.878;8.334;2023-02-28T09:25:47;100966.66;;;1.16;64.01
30598;BME280;17365;48.878;8.334;2023-02-28T09:28:13;100968.03;;;1.42;62.94
30598;BME280;17365;48.878;8.334;2023-02-28T09:30:40;100972.91;;;1.38;62.96
30598;BME280;17365;48.878;8.334;2023-02-28T09:33:05;100963.31;;;1.17;62.96
30598;BME280;17365;48.878;8.334;2023-02-28T09:35:31;100969.78;;;1.43;62.58
30598;BME280;17365;48.878;8.334;2023-02-28T09:37:56;100960.09;;;1.54;62.75
30598;BME280;17365;48.878;8.334;2023-02-28T09:40:22;100965.84;;;1.66;61.67
30598;BME280;17365;48.878;8.334;2023-02-28T09:42:49;100969.69;;;1.58;62.31
30598;BME280;17365;48.878;8.334;2023-02-28T09:45:28;100959.69;;;1.46;63.19
30598;BME280;17365;48.878;8.334;2023-02-28T09:47:56;100964.19;;;1.51;62.65
30598;BME280;17365;48.878;8.334;2023-02-28T09:52:49;100965.63;;;1.45;62.16
30598;BME280;17365;48.878;8.334;2023-02-28T09:57:40;100969.38;;;2.02;61.31
30598;BME280;17365;48.878;8.334;2023-02-28T10:00:18;100984.16;;;2.08;60.56
30598;BME280;17365;48.878;8.334;2023-02-28T10:02:49;100974.31;;;2.16;59.83
30598;BME280;17365;48.878;8.334;2023-02-28T10:05:17;100979.16;;;2.27;60.25
30598;BME280;17365;48.878;8.334;2023-02-28T10:10:20;100987.22;;;2.01;61.16
30598;BME280;17365;48.878;8.334;2023-02-28T10:12:46;100990.09;;;2.07;60.13
30598;BME280;17365;48.878;8.334;2023-02-28T10:15:15;100985.47;;;2.00;59.52
30598;BME280;17365;48.878;8.334;2023-02-28T10:17:42;100983.81;;;2.18;58.51
30598;BME280;17365;48.878;8.334;2023-02-28T10:20:12;100982.34;;;2.23;58.50
30598;BME280;17365;48.878;8.334;2023-02-28T10:23:04;100991.38;;;1.99;57.63
30598;BME280;17365;48.878;8.334;2023-02-28T10:25:26;100986.47;;;2.20;58.09
30598;BME280;17365;48.878;8.334;2023-02-28T10:28:00;101000.84;;;2.52;57.61
30598;BME280;17365;48.878;8.334;2023-02-28T10:30:26;100989.47;;;1.95;58.00
30598;BME280;17365;48.878;8.334;2023-02-28T10:32:52;101002.41;;;2.32;57.58
30598;BME280;17365;48.878;8.334;2023-02-28T10:37:48;100998.91;;;1.96;56.26
30598;BME280;17365;48.878;8.334;2023-02-28T10:45:29;100993.94;;;2.51;55.02
30598;BME280;17365;48.878;8.334;2023-02-28T10:50:27;101010.22;;;2.35;55.82
30598;BME280;17365;48.878;8.334;2023-02-28T10:52:53;101004.03;;;2.48;55.17
30598;BME280;17365;48.878;8.334;2023-02-28T10:55:22;100995.47;;;2.65;55.02
30598;BME280;17365;48.878;8.334;2023-02-28T10:57:48;101006.81;;;2.70;54.13
30598;BME280;17365;48.878;8.334;2023-02-28T11:00:16;101014.28;;;2.66;53.57
30598;BME280;17365;48.878;8.334;2023-02-28T11:02:41;100998.78;;;2.62;54.11
30598;BME280;17365;48.878;8.334;2023-02-28T11:05:25;101008.88;;;2.42;54.69
30598;BME280;17365;48.878;8.334;2023-02-28T11:07:55;100999.44;;;2.41;53.82
30598;BME280;17365;48.878;8.334;2023-02-28T11:10:21;100998.84;;;2.64;53.93
30598;BME280;17365;48.878;8.334;2023-02-28T11:12:48;100993.25;;;2.90;53.16
30598;BME280;17365;48.878;8.334;2023-02-28T11:17:52;100991.94;;;2.99;52.54
30598;BME280;17365;48.878;8.334;2023-02-28T11:20:20;100993.56;;;3.16;52.92
30598;BME280;17365;48.878;8.334;2023-02-28T11:22:48;100987.94;;;3.23;52.42
30598;BME280;17365;48.878;8.334;2023-02-28T11:25:19;100991.00;;;3.16;52.16
30598;BME280;17365;48.878;8.334;2023-02-28T11:27:50;100988.22;;;3.29;51.89
30598;BME280;17365;48.878;8.334;2023-02-28T11:30:35;100986.88;;;3.00;52.64
30598;BME280;17365;48.878;8.334;2023-02-28T11:33:13;100974.63;;;3.51;52.08
30598;BME280;17365;48.878;8.334;2023-02-28T11:35:43;100977.25;;;3.14;51.88
30598;BME280;17365;48.878;8.334;2023-02-28T11:38:12;100985.78;;;3.32;52.02
30598;BME280;17365;48.878;8.334;2023-02-28T11:40:46;100963.97;;;3.22;51.74
30598;BME280;17365;48.878;8.334;2023-02-28T11:43:20;100967.03;;;3.33;51.43
30598;BME280;17365;48.878;8.334;2023-02-28T11:50:47;100968.50;;;3.67;50.76
30598;BME280;17365;48.878;8.334;2023-02-28T11:55:49;100963.06;;;3.80;50.99
30598;BME280;17365;48.878;8.334;2023-02-28T11:58:21;100957.53;;;3.71;50.67
30598;BME280;17365;48.878;8.334;2023-02-28T12:06:21;100954.56;;;3.62;50.27
30598;BME280;17365;48.878;8.334;2023-02-28T12:14:25;100962.31;;;4.23;49.45
30598;BME280;17365;48.878;8.334;2023-02-28T12:21:55;100956.63;;;4.52;49.15
30598;BME280;17365;48.878;8.334;2023-02-28T12:24:39;100968.75;;;4.13;49.43
30598;BME280;17365;48.878;8.334;2023-02-28T12:27:10;100940.19;;;4.26;48.64
30598;BME280;17365;48.878;8.334;2023-02-28T12:30:00;100942.59;;;4.65;49.10
30598;BME280;17365;48.878;8.334;2023-02-28T12:32:26;100931.91;;;4.54;47.95
30598;BME280;17365;48.878;8.334;2023-02-28T12:37:38;100949.16;;;5.73;46.65
30598;BME280;17365;48.878;8.334;2023-02-28T12:40:09;100926.47;;;5.63;46.76
30598;BME280;17365;48.878;8.334;2023-02-28T12:42:38;100921.81;;;6.01;46.39
30598;BME280;17365;48.878;8.334;2023-02-28T12:47:35;100922.78;;;5.55;47.11
30598;BME280;17365;48.878;8.334;2023-02-28T12:50:06;100926.72;;;5.45;46.29
30598;BME280;17365;48.878;8.334;2023-02-28T12:52:47;100918.06;;;5.43;47.34
30598;BME280;17365;48.878;8.334;2023-02-28T13:00:12;100910.09;;;4.45;49.80
30598;BME280;17365;48.878;8.334;2023-02-28T13:10:53;100897.47;;;5.43;48.30
30598;BME280;17365;48.878;8.334;2023-02-28T13:13:20;100899.97;;;4.94;48.62
30598;BME280;17365;48.878;8.334;2023-02-28T13:18:31;100894.97;;;4.75;49.02
30598;BME280;17365;48.878;8.334;2023-02-28T13:20:57;100897.63;;;5.22;48.12
30598;BME280;17365;48.878;8.334;2023-02-28T13:23:40;100894.03;;;5.43;47.85
30598;BME280;17365;48.878;8.334;2023-02-28T13:26:05;100898.25;;;5.41;47.28
30598;BME280;17365;48.878;8.334;2023-02-28T13:31:15;100896.69;;;5.44;47.60
30598;BME280;17365;48.878;8.334;2023-02-28T13:38:36;100892.78;;;5.32;48.17
30598;BME280;17365;48.878;8.334;2023-02-28T13:44:20;100899.34;;;5.97;46.95
30598;BME280;17365;48.878;8.334;2023-02-28T13:49:44;100897.47;;;5.67;47.12
30598;BME280;17365;48.878;8.334;2023-02-28T13:59:28;100892.56;;;5.49;47.46
30598;BME280;17365;48.878;8.334;2023-02-28T14:02:01;100903.72;;;5.26;47.56
30598;BME280;17365;48.878;8.334;2023-02-28T14:06:59;100903.28;;;5.38;47.79
30598;BME280;17365;48.878;8.334;2023-02-28T14:09:25;100895.19;;;5.51;47.40
30598;BME280;17365;48.878;8.334;2023-02-28T14:11:52;100896.03;;;4.80;48.33
30598;BME280;17365;48.878;8.334;2023-02-28T14:17:04;100883.13;;;5.50;47.27
30598;BME280;17365;48.878;8.334;2023-02-28T14:19:32;100892.94;;;5.60;47.48
30598;BME280;17365;48.878;8.334;2023-02-28T14:37:16;100881.91;;;5.64;47.83
30598;BME280;17365;48.878;8.334;2023-02-28T14:39:43;100878.66;;;5.44;47.36
30598;BME280;17365;48.878;8.334;2023-02-28T14:44:54;100883.34;;;5.08;48.67
30598;BME280;17365;48.878;8.334;2023-02-28T14:47:27;100899.56;;;5.06;48.55
30598;BME280;17365;48.878;8.334;2023-02-28T14:49:53;100885.69;;;5.01;48.91
30598;BME280;17365;48.878;8.334;2023-02-28T14:52:20;100886.88;;;5.10;48.80
30598;BME280;17365;48.878;8.334;2023-02-28T14:54:46;100879.38;;;5.16;48.96
30598;BME280;17365;48.878;8.334;2023-02-28T14:57:23;100886.53;;;5.01;48.93
30598;BME280;17365;48.878;8.334;2023-02-28T14:59:56;100878.13;;;5.05;48.80
30598;BME280;17365;48.878;8.334;2023-02-28T15:02:23;100881.69;;;5.33;48.75
30598;BME280;17365;48.878;8.334;2023-02-28T15:05:01;100873.16;;;5.34;48.86
30598;BME280;17365;48.878;8.334;2023-02-28T15:07:29;100874.91;;;5.35;48.42
30598;BME280;17365;48.878;8.334;2023-02-28T15:12:39;100875.44;;;5.02;48.72
30598;BME280;17365;48.878;8.334;2023-02-28T15:15:05;100881.16;;;4.95;49.69
30598;BME280;17365;48.878;8.334;2023-02-28T15:17:31;100883.59;;;5.14;49.32
30598;BME280;17365;48.878;8.334;2023-02-28T15:19:56;100879.84;;;5.30;49.18
30598;BME280;17365;48.878;8.334;2023-02-28T15:22:28;100872.44;;;5.14;49.04
30598;BME280;17365;48.878;8.334;2023-02-28T15:24:56;100878.22;;;5.08;49.26
30598;BME280;17365;48.878;8.334;2023-02-28T15:27:22;100882.22;;;5.24;49.00